sensor_id;sensor_type;location;lat;lon;timestamp;temperature;humidity
42095;DHT22;27753;55.724;37.612;2023-09-19T00:01:08;13.10;99.90
42095;DHT22;27753;55.724;37.612;2023-09-19T00:03:35;13.10;99.90
42095;DHT22;27753;55.724;37.612;2023-09-19T00:06:04;13.00;99.90
42095;DHT22;27753;55.724;37.612;2023-09-19T00:08:32;12.90;99.90
42095;DHT22;27753;55.724;37.612;2023-09-19T00:10:58;12.80;99.90
42095;DHT22;27753;55.724;37.612;2023-09-19T00:13:32;12.70;99.90
42095;DHT22;27753;55.724;37.612;2023-09-19T00:15:58;12.70;99.90
42095;DHT22;27753;55.724;37.612;2023-09-19T00:18:25;12.70;99.90
42095;DHT22;27753;55.724;37.612;2023-09-19T00:20:58;12.70;99.90
42095;DHT22;27753;55.724;37.612;2023-09-19T00:23:24;12.70;99.90
42095;DHT22;27753;55.724;37.612;2023-09-19T00:25:50;12.70;99.90
42095;DHT22;27753;55.724;37.612;2023-09-19T00:28:17;12.70;99.90
42095;DHT22;27753;55.724;37.612;2023-09-19T00:30:45;12.70;99.90
42095;DHT22;27753;55.724;37.612;2023-09-19T00:33:21;12.70;99.90
42095;DHT22;27753;55.724;37.612;2023-09-19T00:35:54;12.70;99.90
42095;DHT22;27753;55.724;37.612;2023-09-19T00:38:21;12.70;99.90
42095;DHT22;27753;55.724;37.612;2023-09-19T00:40:48;12.70;99.90
42095;DHT22;27753;55.724;37.612;2023-09-19T00:43:15;12.70;99.90
42095;DHT22;27753;55.724;37.612;2023-09-19T00:45:44;12.70;99.90
42095;DHT22;27753;55.724;37.612;2023-09-19T00:48:11;12.60;99.90
42095;DHT22;27753;55.724;37.612;2023-09-19T00:50:38;12.60;99.90
42095;DHT22;27753;55.724;37.612;2023-09-19T00:53:08;12.70;99.90
42095;DHT22;27753;55.724;37.612;2023-09-19T00:55:38;12.70;99.90
42095;DHT22;27753;55.724;37.612;2023-09-19T00:58:04;12.70;99.90
42095;DHT22;27753;55.724;37.612;2023-09-19T01:00:33;12.70;99.90
42095;DHT22;27753;55.724;37.612;2023-09-19T01:03:00;12.80;99.90
42095;DHT22;27753;55.724;37.612;2023-09-19T01:05:27;12.80;99.90
42095;DHT22;27753;55.724;37.612;2023-09-19T01:07:53;12.80;99.90
42095;DHT22;27753;55.724;37.612;2023-09-19T01:10:20;12.80;99.90
42095;DHT22;27753;55.724;37.612;2023-09-19T01:13:09;12.80;99.90
42095;DHT22;27753;55.724;37.612;2023-09-19T01:18:52;12.80;99.90
42095;DHT22;27753;55.724;37.612;2023-09-19T01:21:35;12.70;99.90
42095;DHT22;27753;55.724;37.612;2023-09-19T01:24:22;12.70;99.90
42095;DHT22;27753;55.724;37.612;2023-09-19T01:30:08;12.80;99.60
42095;DHT22;27753;55.724;37.612;2023-09-19T01:32:34;12.80;99.40
42095;DHT22;27753;55.724;37.612;2023-09-19T01:35:03;12.70;99.30
42095;DHT22;27753;55.724;37.612;2023-09-19T01:37:32;12.70;99.30
42095;DHT22;27753;55.724;37.612;2023-09-19T01:40:02;12.70;99.20
42095;DHT22;27753;55.724;37.612;2023-09-19T01:42:58;12.70;99.10
42095;DHT22;27753;55.724;37.612;2023-09-19T01:50:44;12.70;99.30
42095;DHT22;27753;55.724;37.612;2023-09-19T01:53:35;12.70;99.30
42095;DHT22;27753;55.724;37.612;2023-09-19T01:56:02;12.70;99.40
42095;DHT22;27753;55.724;37.612;2023-09-19T01:58:55;12.70;99.40
42095;DHT22;27753;55.724;37.612;2023-09-19T02:01:22;12.70;99.40
42095;DHT22;27753;55.724;37.612;2023-09-19T02:03:50;12.70;99.40
42095;DHT22;27753;55.724;37.612;2023-09-19T02:06:17;12.60;99.30
42095;DHT22;27753;55.724;37.612;2023-09-19T02:08:45;12.60;99.20
42095;DHT22;27753;55.724;37.612;2023-09-19T02:11:11;12.60;99.30
42095;DHT22;27753;55.724;37.612;2023-09-19T02:13:38;12.40;99.30
42095;DHT22;27753;55.724;37.612;2023-09-19T02:16:05;12.30;99.40
42095;DHT22;27753;55.724;37.612;2023-09-19T02:18:32;12.20;99.60
42095;DHT22;27753;55.724;37.612;2023-09-19T02:21:01;12.10;99.80
42095;DHT22;27753;55.724;37.612;2023-09-19T02:23:27;12.00;99.90
42095;DHT22;27753;55.724;37.612;2023-09-19T02:25:57;11.80;99.90
42095;DHT22;27753;55.724;37.612;2023-09-19T02:28:31;11.80;99.90
42095;DHT22;27753;55.724;37.612;2023-09-19T02:30:58;11.70;99.90
42095;DHT22;27753;55.724;37.612;2023-09-19T02:33:24;11.60;99.90
42095;DHT22;27753;55.724;37.612;2023-09-19T02:35:54;11.60;99.90
42095;DHT22;27753;55.724;37.612;2023-09-19T02:38:20;11.50;99.90
42095;DHT22;27753;55.724;37.612;2023-09-19T02:40:50;11.50;99.90
42095;DHT22;27753;55.724;37.612;2023-09-19T02:43:16;11.40;99.90
42095;DHT22;27753;55.724;37.612;2023-09-19T02:45:42;11.30;99.90
42095;DHT22;27753;55.724;37.612;2023-09-19T02:48:08;11.30;99.90
42095;DHT22;27753;55.724;37.612;2023-09-19T02:50:34;11.30;99.90
42095;DHT22;27753;55.724;37.612;2023-09-19T02:53:00;11.30;99.90
42095;DHT22;27753;55.724;37.612;2023-09-19T02:55:26;11.20;99.90
42095;DHT22;27753;55.724;37.612;2023-09-19T02:57:53;11.20;99.90
42095;DHT22;27753;55.724;37.612;2023-09-19T03:00:22;11.20;99.90
42095;DHT22;27753;55.724;37.612;2023-09-19T03:02:49;11.20;99.90
42095;DHT22;27753;55.724;37.612;2023-09-19T03:05:16;11.20;99.90
42095;DHT22;27753;55.724;37.612;2023-09-19T03:07:42;11.10;99.90
42095;DHT22;27753;55.724;37.612;2023-09-19T03:10:09;11.10;99.90
42095;DHT22;27753;55.724;37.612;2023-09-19T03:12:35;11.20;99.90
42095;DHT22;27753;55.724;37.612;2023-09-19T03:15:02;11.20;99.90
42095;DHT22;27753;55.724;37.612;2023-09-19T03:17:29;11.20;99.90
42095;DHT22;27753;55.724;37.612;2023-09-19T03:19:55;11.20;99.90
42095;DHT22;27753;55.724;37.612;2023-09-19T03:22:22;11.30;99.90
42095;DHT22;27753;55.724;37.612;2023-09-19T03:24:50;11.30;99.90
42095;DHT22;27753;55.724;37.612;2023-09-19T03:27:16;11.40;99.90
42095;DHT22;27753;55.724;37.612;2023-09-19T03:29:42;11.60;99.90
42095;DHT22;27753;55.724;37.612;2023-09-19T03:32:08;11.60;99.90
42095;DHT22;27753;55.724;37.612;2023-09-19T03:34:39;11.70;99.90
42095;DHT22;27753;55.724;37.612;2023-09-19T03:37:09;11.80;99.90
42095;DHT22;27753;55.724;37.612;2023-09-19T03:39:35;11.90;99.90
42095;DHT22;27753;55.724;37.612;2023-09-19T03:42:02;11.90;99.90
42095;DHT22;27753;55.724;37.612;2023-09-19T03:44:32;12.00;99.90
42095;DHT22;27753;55.724;37.612;2023-09-19T03:46:58;12.10;99.90
42095;DHT22;27753;55.724;37.612;2023-09-19T03:49:24;12.10;99.90
42095;DHT22;27753;55.724;37.612;2023-09-19T03:51:50;12.20;99.90
42095;DHT22;27753;55.724;37.612;2023-09-19T03:54:16;12.20;99.90
42095;DHT22;27753;55.724;37.612;2023-09-19T03:56:45;12.30;99.90
42095;DHT22;27753;55.724;37.612;2023-09-19T03:59:11;12.30;99.90
42095;DHT22;27753;55.724;37.612;2023-09-19T04:01:37;12.30;99.90
42095;DHT22;27753;55.724;37.612;2023-09-19T04:04:06;12.40;99.90
42095;DHT22;27753;55.724;37.612;2023-09-19T04:06:37;12.40;99.90
42095;DHT22;27753;55.724;37.612;2023-09-19T04:09:03;12.40;99.90
42095;DHT22;27753;55.724;37.612;2023-09-19T04:11:33;12.40;99.90
42095;DHT22;27753;55.724;37.612;2023-09-19T04:13:59;12.50;99.90
42095;DHT22;27753;55.724;37.612;2023-09-19T04:16:25;12.50;99.90
42095;DHT22;27753;55.724;37.612;2023-09-19T04:18:51;12.50;99.90
42095;DHT22;27753;55.724;37.612;2023-09-19T04:21:17;12.60;99.90
42095;DHT22;27753;55.724;37.612;2023-09-19T04:23:42;12.60;99.90
42095;DHT22;27753;55.724;37.612;2023-09-19T04:26:08;12.60;99.90
42095;DHT22;27753;55.724;37.612;2023-09-19T04:28:34;12.60;99.90
42095;DHT22;27753;55.724;37.612;2023-09-19T04:31:02;12.60;99.90
42095;DHT22;27753;55.724;37.612;2023-09-19T04:33:29;12.60;99.90
42095;DHT22;27753;55.724;37.612;2023-09-19T04:35:55;12.70;99.90
42095;DHT22;27753;55.724;37.612;2023-09-19T04:38:21;12.70;99.90
42095;DHT22;27753;55.724;37.612;2023-09-19T04:40:47;12.80;99.80
42095;DHT22;27753;55.724;37.612;2023-09-19T04:43:13;12.80;99.70
42095;DHT22;27753;55.724;37.612;2023-09-19T04:45:41;12.80;99.50
42095;DHT22;27753;55.724;37.612;2023-09-19T04:48:07;12.90;99.50
42095;DHT22;27753;55.724;37.612;2023-09-19T04:50:34;12.90;99.30
42095;DHT22;27753;55.724;37.612;2023-09-19T04:53:00;13.00;99.20
42095;DHT22;27753;55.724;37.612;2023-09-19T04:55:26;13.00;99.00
42095;DHT22;27753;55.724;37.612;2023-09-19T04:57:53;13.00;98.90
42095;DHT22;27753;55.724;37.612;2023-09-19T05:00:22;13.10;98.80
42095;DHT22;27753;55.724;37.612;2023-09-19T05:02:55;13.10;98.70
42095;DHT22;27753;55.724;37.612;2023-09-19T05:05:21;13.20;98.60
42095;DHT22;27753;55.724;37.612;2023-09-19T05:07:49;13.20;98.50
42095;DHT22;27753;55.724;37.612;2023-09-19T05:10:15;13.30;98.90
42095;DHT22;27753;55.724;37.612;2023-09-19T05:12:44;13.30;98.80
42095;DHT22;27753;55.724;37.612;2023-09-19T05:15:14;13.40;98.70
42095;DHT22;27753;55.724;37.612;2023-09-19T05:17:47;13.40;98.30
42095;DHT22;27753;55.724;37.612;2023-09-19T05:20:13;13.40;98.30
42095;DHT22;27753;55.724;37.612;2023-09-19T05:22:45;13.50;98.30
42095;DHT22;27753;55.724;37.612;2023-09-19T05:25:12;13.60;98.40
42095;DHT22;27753;55.724;37.612;2023-09-19T05:27:43;13.80;98.20
42095;DHT22;27753;55.724;37.612;2023-09-19T05:30:09;13.90;97.80
42095;DHT22;27753;55.724;37.612;2023-09-19T05:32:35;14.00;97.50
42095;DHT22;27753;55.724;37.612;2023-09-19T05:35:01;14.10;97.20
42095;DHT22;27753;55.724;37.612;2023-09-19T05:37:26;14.10;97.00
42095;DHT22;27753;55.724;37.612;2023-09-19T05:39:52;14.20;97.00
42095;DHT22;27753;55.724;37.612;2023-09-19T05:42:21;14.30;96.60
42095;DHT22;27753;55.724;37.612;2023-09-19T05:44:47;14.30;96.60
42095;DHT22;27753;55.724;37.612;2023-09-19T05:47:12;14.20;96.50
42095;DHT22;27753;55.724;37.612;2023-09-19T05:49:38;14.20;96.40
42095;DHT22;27753;55.724;37.612;2023-09-19T05:52:07;14.10;96.40
42095;DHT22;27753;55.724;37.612;2023-09-19T05:54:33;14.10;96.40
42095;DHT22;27753;55.724;37.612;2023-09-19T05:57:02;14.10;96.70
42095;DHT22;27753;55.724;37.612;2023-09-19T05:59:28;14.20;96.70
42095;DHT22;27753;55.724;37.612;2023-09-19T06:01:54;14.20;96.50
42095;DHT22;27753;55.724;37.612;2023-09-19T06:04:20;14.30;96.50
42095;DHT22;27753;55.724;37.612;2023-09-19T06:06:47;14.40;96.30
42095;DHT22;27753;55.724;37.612;2023-09-19T06:09:14;14.40;96.20
42095;DHT22;27753;55.724;37.612;2023-09-19T06:11:42;14.40;96.10
42095;DHT22;27753;55.724;37.612;2023-09-19T06:14:10;14.50;96.00
42095;DHT22;27753;55.724;37.612;2023-09-19T06:16:37;14.50;96.00
42095;DHT22;27753;55.724;37.612;2023-09-19T06:19:06;14.60;95.90
42095;DHT22;27753;55.724;37.612;2023-09-19T06:21:34;14.60;95.80
42095;DHT22;27753;55.724;37.612;2023-09-19T06:24:00;14.60;95.70
42095;DHT22;27753;55.724;37.612;2023-09-19T06:26:26;14.70;95.50
42095;DHT22;27753;55.724;37.612;2023-09-19T06:28:52;14.70;95.60
42095;DHT22;27753;55.724;37.612;2023-09-19T06:31:18;14.80;95.40
42095;DHT22;27753;55.724;37.612;2023-09-19T06:33:44;14.90;95.30
42095;DHT22;27753;55.724;37.612;2023-09-19T06:36:10;14.90;95.10
42095;DHT22;27753;55.724;37.612;2023-09-19T06:38:37;15.00;95.10
42095;DHT22;27753;55.724;37.612;2023-09-19T06:41:05;15.10;95.00
42095;DHT22;27753;55.724;37.612;2023-09-19T06:43:31;15.10;95.00
42095;DHT22;27753;55.724;37.612;2023-09-19T06:46:00;15.10;95.00
42095;DHT22;27753;55.724;37.612;2023-09-19T06:48:26;15.30;94.80
42095;DHT22;27753;55.724;37.612;2023-09-19T06:50:56;15.60;94.70
42095;DHT22;27753;55.724;37.612;2023-09-19T06:53:24;16.00;94.10
42095;DHT22;27753;55.724;37.612;2023-09-19T06:55:53;16.40;93.30
42095;DHT22;27753;55.724;37.612;2023-09-19T06:58:19;16.50;92.60
42095;DHT22;27753;55.724;37.612;2023-09-19T07:00:46;16.50;92.50
42095;DHT22;27753;55.724;37.612;2023-09-19T07:03:14;16.70;92.40
42095;DHT22;27753;55.724;37.612;2023-09-19T07:05:41;17.00;91.90
42095;DHT22;27753;55.724;37.612;2023-09-19T07:08:09;17.10;91.60
42095;DHT22;27753;55.724;37.612;2023-09-19T07:10:38;17.30;91.40
42095;DHT22;27753;55.724;37.612;2023-09-19T07:13:13;17.40;91.10
42095;DHT22;27753;55.724;37.612;2023-09-19T07:15:39;17.70;90.90
42095;DHT22;27753;55.724;37.612;2023-09-19T07:18:06;17.90;90.40
42095;DHT22;27753;55.724;37.612;2023-09-19T07:20:32;18.10;89.90
42095;DHT22;27753;55.724;37.612;2023-09-19T07:22:58;18.30;89.20
42095;DHT22;27753;55.724;37.612;2023-09-19T07:25:31;18.60;88.00
42095;DHT22;27753;55.724;37.612;2023-09-19T07:27:59;18.90;86.80
42095;DHT22;27753;55.724;37.612;2023-09-19T07:30:26;19.20;85.90
42095;DHT22;27753;55.724;37.612;2023-09-19T07:32:52;19.40;85.10
42095;DHT22;27753;55.724;37.612;2023-09-19T07:35:18;19.70;85.00
42095;DHT22;27753;55.724;37.612;2023-09-19T07:37:46;20.00;83.30
42095;DHT22;27753;55.724;37.612;2023-09-19T07:40:18;20.10;82.40
42095;DHT22;27753;55.724;37.612;2023-09-19T07:42:44;20.20;81.80
42095;DHT22;27753;55.724;37.612;2023-09-19T07:45:12;20.10;81.80
42095;DHT22;27753;55.724;37.612;2023-09-19T07:47:50;20.00;82.10
42095;DHT22;27753;55.724;37.612;2023-09-19T07:50:17;19.60;82.40
42095;DHT22;27753;55.724;37.612;2023-09-19T07:52:45;19.30;83.40
42095;DHT22;27753;55.724;37.612;2023-09-19T07:55:11;19.20;84.00
42095;DHT22;27753;55.724;37.612;2023-09-19T07:57:41;19.10;84.60
42095;DHT22;27753;55.724;37.612;2023-09-19T08:00:08;19.30;84.80
42095;DHT22;27753;55.724;37.612;2023-09-19T08:02:39;19.40;84.00
42095;DHT22;27753;55.724;37.612;2023-09-19T08:05:06;19.40;83.90
42095;DHT22;27753;55.724;37.612;2023-09-19T08:07:37;19.40;84.00
42095;DHT22;27753;55.724;37.612;2023-09-19T08:10:04;19.40;83.80
42095;DHT22;27753;55.724;37.612;2023-09-19T08:12:31;19.60;84.50
42095;DHT22;27753;55.724;37.612;2023-09-19T08:14:58;19.80;83.50
42095;DHT22;27753;55.724;37.612;2023-09-19T08:17:23;20.10;82.70
42095;DHT22;27753;55.724;37.612;2023-09-19T08:19:49;20.20;82.00
42095;DHT22;27753;55.724;37.612;2023-09-19T08:22:19;20.30;81.30
42095;DHT22;27753;55.724;37.612;2023-09-19T08:24:45;20.40;81.10
42095;DHT22;27753;55.724;37.612;2023-09-19T08:27:11;20.30;81.90
42095;DHT22;27753;55.724;37.612;2023-09-19T08:29:38;20.10;82.20
42095;DHT22;27753;55.724;37.612;2023-09-19T08:32:04;20.10;81.90
42095;DHT22;27753;55.724;37.612;2023-09-19T08:34:30;20.00;81.80
42095;DHT22;27753;55.724;37.612;2023-09-19T08:36:58;19.80;82.50
42095;DHT22;27753;55.724;37.612;2023-09-19T08:39:25;19.60;82.70
42095;DHT22;27753;55.724;37.612;2023-09-19T08:41:58;19.50;83.60
42095;DHT22;27753;55.724;37.612;2023-09-19T08:44:28;19.30;83.90
42095;DHT22;27753;55.724;37.612;2023-09-19T08:47:07;19.20;84.60
42095;DHT22;27753;55.724;37.612;2023-09-19T08:52:20;19.00;85.50
42095;DHT22;27753;55.724;37.612;2023-09-19T08:54:52;18.80;85.90
42095;DHT22;27753;55.724;37.612;2023-09-19T08:57:19;18.80;86.30
42095;DHT22;27753;55.724;37.612;2023-09-19T08:59:48;18.80;86.80
42095;DHT22;27753;55.724;37.612;2023-09-19T09:02:15;18.70;86.80
42095;DHT22;27753;55.724;37.612;2023-09-19T09:04:45;18.70;86.80
42095;DHT22;27753;55.724;37.612;2023-09-19T09:07:12;18.60;87.40
42095;DHT22;27753;55.724;37.612;2023-09-19T09:09:39;18.60;88.00
42095;DHT22;27753;55.724;37.612;2023-09-19T09:12:13;18.60;88.20
42095;DHT22;27753;55.724;37.612;2023-09-19T09:14:46;18.60;88.00
42095;DHT22;27753;55.724;37.612;2023-09-19T09:17:16;18.60;87.90
42095;DHT22;27753;55.724;37.612;2023-09-19T09:19:46;18.50;88.20
42095;DHT22;27753;55.724;37.612;2023-09-19T09:22:12;18.50;88.60
42095;DHT22;27753;55.724;37.612;2023-09-19T09:24:54;18.60;89.40
42095;DHT22;27753;55.724;37.612;2023-09-19T09:27:23;18.70;88.60
42095;DHT22;27753;55.724;37.612;2023-09-19T09:29:51;18.90;88.10
42095;DHT22;27753;55.724;37.612;2023-09-19T09:32:20;19.10;87.30
42095;DHT22;27753;55.724;37.612;2023-09-19T09:34:57;19.30;87.20
42095;DHT22;27753;55.724;37.612;2023-09-19T09:37:24;19.30;86.40
42095;DHT22;27753;55.724;37.612;2023-09-19T09:40:01;19.20;86.50
42095;DHT22;27753;55.724;37.612;2023-09-19T09:42:42;19.20;87.00
42095;DHT22;27753;55.724;37.612;2023-09-19T09:45:20;19.20;86.80
42095;DHT22;27753;55.724;37.612;2023-09-19T09:48:15;19.10;87.20
42095;DHT22;27753;55.724;37.612;2023-09-19T09:50:48;19.10;87.70
42095;DHT22;27753;55.724;37.612;2023-09-19T09:53:27;19.20;87.00
42095;DHT22;27753;55.724;37.612;2023-09-19T09:56:09;19.40;87.10
42095;DHT22;27753;55.724;37.612;2023-09-19T09:58:49;19.50;87.40
42095;DHT22;27753;55.724;37.612;2023-09-19T10:01:17;19.60;86.30
42095;DHT22;27753;55.724;37.612;2023-09-19T10:03:44;19.40;86.10
42095;DHT22;27753;55.724;37.612;2023-09-19T10:06:14;19.30;86.70
42095;DHT22;27753;55.724;37.612;2023-09-19T10:11:47;19.40;87.10
42095;DHT22;27753;55.724;37.612;2023-09-19T10:14:27;19.90;86.80
42095;DHT22;27753;55.724;37.612;2023-09-19T10:16:58;20.30;85.20
42095;DHT22;27753;55.724;37.612;2023-09-19T10:19:58;20.70;83.90
42095;DHT22;27753;55.724;37.612;2023-09-19T10:22:26;20.90;83.00
42095;DHT22;27753;55.724;37.612;2023-09-19T10:24:57;21.10;82.40
42095;DHT22;27753;55.724;37.612;2023-09-19T10:27:26;21.20;81.70
42095;DHT22;27753;55.724;37.612;2023-09-19T10:29:52;21.40;81.40
42095;DHT22;27753;55.724;37.612;2023-09-19T10:32:24;21.40;80.60
42095;DHT22;27753;55.724;37.612;2023-09-19T10:34:51;21.60;80.20
42095;DHT22;27753;55.724;37.612;2023-09-19T10:37:21;21.60;79.70
42095;DHT22;27753;55.724;37.612;2023-09-19T10:39:52;21.60;79.20
42095;DHT22;27753;55.724;37.612;2023-09-19T10:42:20;21.50;79.50
42095;DHT22;27753;55.724;37.612;2023-09-19T10:44:51;21.10;80.20
42095;DHT22;27753;55.724;37.612;2023-09-19T10:47:20;20.90;81.80
42095;DHT22;27753;55.724;37.612;2023-09-19T10:49:50;20.70;81.80
42095;DHT22;27753;55.724;37.612;2023-09-19T10:52:19;20.50;82.50
42095;DHT22;27753;55.724;37.612;2023-09-19T10:54:48;20.40;83.40
42095;DHT22;27753;55.724;37.612;2023-09-19T10:57:22;20.30;83.50
42095;DHT22;27753;55.724;37.612;2023-09-19T11:00:08;20.20;83.80
42095;DHT22;27753;55.724;37.612;2023-09-19T11:05:41;20.10;84.40
42095;DHT22;27753;55.724;37.612;2023-09-19T11:08:07;20.10;84.80
42095;DHT22;27753;55.724;37.612;2023-09-19T11:10:50;20.10;85.20
42095;DHT22;27753;55.724;37.612;2023-09-19T11:13:27;20.10;85.10
42095;DHT22;27753;55.724;37.612;2023-09-19T11:26:43;20.00;86.50
42095;DHT22;27753;55.724;37.612;2023-09-19T11:29:28;20.00;86.30
42095;DHT22;27753;55.724;37.612;2023-09-19T11:31:55;19.90;86.50
42095;DHT22;27753;55.724;37.612;2023-09-19T11:34:42;20.00;86.80
42095;DHT22;27753;55.724;37.612;2023-09-19T11:39:50;20.00;87.00
42095;DHT22;27753;55.724;37.612;2023-09-19T11:42:46;20.10;86.90
42095;DHT22;27753;55.724;37.612;2023-09-19T11:48:18;20.00;86.90
42095;DHT22;27753;55.724;37.612;2023-09-19T11:50:45;20.00;87.50
42095;DHT22;27753;55.724;37.612;2023-09-19T11:53:13;20.10;87.90
42095;DHT22;27753;55.724;37.612;2023-09-19T11:55:42;20.10;87.90
42095;DHT22;27753;55.724;37.612;2023-09-19T11:58:15;20.20;87.70
42095;DHT22;27753;55.724;37.612;2023-09-19T12:00:45;20.30;87.70
42095;DHT22;27753;55.724;37.612;2023-09-19T12:03:12;20.30;87.00
42095;DHT22;27753;55.724;37.612;2023-09-19T12:05:40;20.30;87.00
42095;DHT22;27753;55.724;37.612;2023-09-19T12:08:07;20.30;87.40
42095;DHT22;27753;55.724;37.612;2023-09-19T12:10:48;20.30;86.90
42095;DHT22;27753;55.724;37.612;2023-09-19T12:13:21;20.30;86.90
42095;DHT22;27753;55.724;37.612;2023-09-19T12:15:49;20.30;87.20
42095;DHT22;27753;55.724;37.612;2023-09-19T12:18:28;20.60;87.20
42095;DHT22;27753;55.724;37.612;2023-09-19T12:20:55;21.00;86.80
42095;DHT22;27753;55.724;37.612;2023-09-19T12:23:23;21.20;85.40
42095;DHT22;27753;55.724;37.612;2023-09-19T12:25:49;21.40;85.00
42095;DHT22;27753;55.724;37.612;2023-09-19T12:28:20;21.50;84.10
42095;DHT22;27753;55.724;37.612;2023-09-19T12:30:48;21.60;83.60
42095;DHT22;27753;55.724;37.612;2023-09-19T12:33:16;21.60;84.00
42095;DHT22;27753;55.724;37.612;2023-09-19T12:35:45;21.50;84.30
42095;DHT22;27753;55.724;37.612;2023-09-19T12:38:11;21.40;84.30
42095;DHT22;27753;55.724;37.612;2023-09-19T12:40:50;21.30;84.50
42095;DHT22;27753;55.724;37.612;2023-09-19T12:43:18;21.30;85.80
42095;DHT22;27753;55.724;37.612;2023-09-19T12:45:44;21.20;85.70
42095;DHT22;27753;55.724;37.612;2023-09-19T12:48:23;21.20;85.50
42095;DHT22;27753;55.724;37.612;2023-09-19T12:53:27;21.30;85.40
42095;DHT22;27753;55.724;37.612;2023-09-19T12:55:58;21.30;85.60
42095;DHT22;27753;55.724;37.612;2023-09-19T12:58:24;21.30;85.50
42095;DHT22;27753;55.724;37.612;2023-09-19T13:00:50;21.30;85.80
42095;DHT22;27753;55.724;37.612;2023-09-19T13:03:27;21.30;85.90
42095;DHT22;27753;55.724;37.612;2023-09-19T13:06:02;21.30;85.60
42095;DHT22;27753;55.724;37.612;2023-09-19T13:08:38;21.30;85.80
42095;DHT22;27753;55.724;37.612;2023-09-19T13:13:36;21.20;86.40
42095;DHT22;27753;55.724;37.612;2023-09-19T13:16:03;21.20;86.10
42095;DHT22;27753;55.724;37.612;2023-09-19T13:18:42;21.20;86.20
42095;DHT22;27753;55.724;37.612;2023-09-19T13:21:11;21.20;86.70
42095;DHT22;27753;55.724;37.612;2023-09-19T13:23:56;21.20;86.60
42095;DHT22;27753;55.724;37.612;2023-09-19T13:26:27;21.20;86.90
42095;DHT22;27753;55.724;37.612;2023-09-19T13:28:57;21.20;87.10
42095;DHT22;27753;55.724;37.612;2023-09-19T13:31:23;21.20;87.20
42095;DHT22;27753;55.724;37.612;2023-09-19T13:33:49;21.10;87.20
42095;DHT22;27753;55.724;37.612;2023-09-19T13:36:16;21.10;87.50
42095;DHT22;27753;55.724;37.612;2023-09-19T13:38:44;21.10;87.40
42095;DHT22;27753;55.724;37.612;2023-09-19T13:41:10;21.10;87.60
42095;DHT22;27753;55.724;37.612;2023-09-19T13:43:37;21.10;87.40
42095;DHT22;27753;55.724;37.612;2023-09-19T13:46:04;21.10;88.10
42095;DHT22;27753;55.724;37.612;2023-09-19T13:48:33;21.10;87.70
42095;DHT22;27753;55.724;37.612;2023-09-19T13:51:02;21.00;87.70
42095;DHT22;27753;55.724;37.612;2023-09-19T13:53:28;21.10;87.70
42095;DHT22;27753;55.724;37.612;2023-09-19T13:55:54;21.10;87.70
42095;DHT22;27753;55.724;37.612;2023-09-19T13:58:20;21.20;87.40
42095;DHT22;27753;55.724;37.612;2023-09-19T14:00:46;21.30;87.20
42095;DHT22;27753;55.724;37.612;2023-09-19T14:03:12;21.30;87.20
42095;DHT22;27753;55.724;37.612;2023-09-19T14:05:38;21.30;87.30
42095;DHT22;27753;55.724;37.612;2023-09-19T14:08:05;21.30;87.40
42095;DHT22;27753;55.724;37.612;2023-09-19T14:10:31;21.30;88.00
42095;DHT22;27753;55.724;37.612;2023-09-19T14:12:57;21.30;87.40
42095;DHT22;27753;55.724;37.612;2023-09-19T14:15:25;21.20;87.40
42095;DHT22;27753;55.724;37.612;2023-09-19T14:20:52;21.10;87.20
42095;DHT22;27753;55.724;37.612;2023-09-19T14:23:18;21.10;87.50
42095;DHT22;27753;55.724;37.612;2023-09-19T14:25:44;21.10;87.70
42095;DHT22;27753;55.724;37.612;2023-09-19T14:28:10;21.00;88.00
42095;DHT22;27753;55.724;37.612;2023-09-19T14:30:36;21.00;88.50
42095;DHT22;27753;55.724;37.612;2023-09-19T14:33:03;21.00;88.70
42095;DHT22;27753;55.724;37.612;2023-09-19T14:35:29;21.00;88.80
42095;DHT22;27753;55.724;37.612;2023-09-19T14:37:55;21.00;89.00
42095;DHT22;27753;55.724;37.612;2023-09-19T14:40:21;21.10;89.10
42095;DHT22;27753;55.724;37.612;2023-09-19T14:42:48;21.00;89.30
42095;DHT22;27753;55.724;37.612;2023-09-19T14:45:14;21.00;89.60
42095;DHT22;27753;55.724;37.612;2023-09-19T14:47:45;20.90;89.80
42095;DHT22;27753;55.724;37.612;2023-09-19T14:50:11;20.90;90.00
42095;DHT22;27753;55.724;37.612;2023-09-19T14:52:38;20.90;90.40
42095;DHT22;27753;55.724;37.612;2023-09-19T14:55:06;20.80;90.20
42095;DHT22;27753;55.724;37.612;2023-09-19T14:57:34;20.80;90.20
42095;DHT22;27753;55.724;37.612;2023-09-19T15:00:00;20.80;90.40
42095;DHT22;27753;55.724;37.612;2023-09-19T15:02:26;20.80;90.70
42095;DHT22;27753;55.724;37.612;2023-09-19T15:04:52;20.70;90.40
42095;DHT22;27753;55.724;37.612;2023-09-19T15:07:18;20.70;90.30
42095;DHT22;27753;55.724;37.612;2023-09-19T15:09:45;20.60;90.40
42095;DHT22;27753;55.724;37.612;2023-09-19T15:12:11;20.60;90.30
42095;DHT22;27753;55.724;37.612;2023-09-19T15:14:40;20.50;90.30
42095;DHT22;27753;55.724;37.612;2023-09-19T15:17:07;20.50;90.50
42095;DHT22;27753;55.724;37.612;2023-09-19T15:19:34;20.50;90.60
42095;DHT22;27753;55.724;37.612;2023-09-19T15:22:00;20.40;90.70
42095;DHT22;27753;55.724;37.612;2023-09-19T15:24:26;20.30;91.00
42095;DHT22;27753;55.724;37.612;2023-09-19T15:26:53;20.20;91.20
42095;DHT22;27753;55.724;37.612;2023-09-19T15:29:21;20.10;91.40
42095;DHT22;27753;55.724;37.612;2023-09-19T15:31:47;20.00;91.60
42095;DHT22;27753;55.724;37.612;2023-09-19T15:34:12;19.90;91.90
42095;DHT22;27753;55.724;37.612;2023-09-19T15:36:41;19.80;92.10
42095;DHT22;27753;55.724;37.612;2023-09-19T15:39:07;19.70;92.70
42095;DHT22;27753;55.724;37.612;2023-09-19T15:41:39;19.60;92.40
42095;DHT22;27753;55.724;37.612;2023-09-19T15:44:11;19.50;92.70
42095;DHT22;27753;55.724;37.612;2023-09-19T15:46:37;19.50;92.80
42095;DHT22;27753;55.724;37.612;2023-09-19T15:49:04;19.40;92.80
42095;DHT22;27753;55.724;37.612;2023-09-19T15:51:29;19.40;92.90
42095;DHT22;27753;55.724;37.612;2023-09-19T15:53:56;19.30;92.90
42095;DHT22;27753;55.724;37.612;2023-09-19T15:56:23;19.30;93.10
42095;DHT22;27753;55.724;37.612;2023-09-19T15:58:53;19.20;93.20
42095;DHT22;27753;55.724;37.612;2023-09-19T16:01:20;19.20;93.20
42095;DHT22;27753;55.724;37.612;2023-09-19T16:03:51;19.20;93.40
42095;DHT22;27753;55.724;37.612;2023-09-19T16:06:26;19.10;93.40
42095;DHT22;27753;55.724;37.612;2023-09-19T16:08:54;19.10;93.70
42095;DHT22;27753;55.724;37.612;2023-09-19T16:11:22;19.00;93.70